METAR AND TAF INFORMATION
METAR FOR SBUL
ADDS - METARS form results

(2011 UTC 25 May 2018)
Data provider http://aviationweather.gov/adds/metars/
 
Forecast for: SBUL (UBERLANDIA , BR)
Text: TAF SBUL 251500Z 2518/2606 08005KT 9999 SCT030TX26/2518Z TN17/2606Z
Forecast period: 1800 to 2000 UTC 25 May 2018
Forecast type: FROM: standard forecast or significant change
Winds: from the E (80 degrees) at 6 MPH (5 knots; 2.6 m/s)
Visibility: 6 or more miles (10+ km)
Clouds: not forecast
Weather: no significant weather forecast for this period
Text: BECMG 2520/2522 CAVOK RMK PGH
Forecast period: 2000 UTC 25 May 2018 to 0600 UTC 26 May 2018
Forecast type: BECOMING: Conditions expected to become as follows by 2200 UTC 25 May 2018
Winds: from the E (80 degrees) at 6 MPH (5 knots; 2.6 m/s)
Visibility: 6 or more miles (10+ km)
Weather: NSW  (no significant weather)

 AIRPORT MAP

 RUNWAY INFORMATION
Runway 4 Runway length 6398 ft Runway width 148 ft
Runway elevation 0 ft Runway displaced threshold 0 ft Runway heading 0
Runway 22 Runway length 6398 ft Runway width 148 ft
Runway elevation 0 ft Runway displaced threshold 0 ft Runway heading 0

 AIRPORT FREQUENCIES
Type APP Name APP Frequency 120.8 MHZ
Type RDO Name RDO Frequency 118.8 MHZ
Type TWR Name TWR Frequency 118.8 MHZ

 AIRPORT NEAR NAVIGATION AIDS
Type VOR-DME Name Uberlandia Frequency 116100 KHZ
Type NDB Name Uberlandia Frequency 350 KHZ



Powered by Virtual Airlines Manager [v2.6.2]